createdAt,value
2018-05-21T02:17:02.745Z,1021.69
2018-05-21T02:17:03.322Z,1021.68
2018-05-21T02:17:03.918Z,1021.68
2018-05-21T02:17:04.519Z,1021.64
2018-05-21T02:17:05.119Z,1021.69
2018-05-21T02:17:05.724Z,1021.68
2018-05-21T02:17:06.318Z,1021.68
2018-05-21T02:17:06.917Z,1021.72
2018-05-21T02:18:01.399Z,1021.67
2018-05-21T02:18:01.997Z,1021.67
2018-05-21T02:18:02.596Z,1021.67
2018-05-21T02:18:03.200Z,1021.66
2018-05-21T02:18:03.796Z,1021.68
2018-05-21T02:18:04.395Z,1021.66
2018-05-21T02:18:04.994Z,1021.63
2018-05-21T02:18:05.595Z,1021.69
2018-05-21T02:18:59.076Z,1021.61
2018-05-21T02:18:59.649Z,1021.59
2018-05-21T02:19:00.249Z,1021.63
2018-05-21T02:19:00.851Z,1021.65
2018-05-21T02:19:01.451Z,1021.64
2018-05-21T02:19:02.049Z,1021.67
2018-05-21T02:19:02.649Z,1021.68
2018-05-21T02:19:03.332Z,1021.63
2018-05-21T02:19:56.712Z,1021.66
2018-05-21T02:19:57.389Z,1021.67
2018-05-21T02:19:57.936Z,1021.66
2018-05-21T02:19:58.562Z,1021.63
2018-05-21T02:19:59.153Z,1021.65
2018-05-21T02:19:59.785Z,1021.66
2018-05-21T02:20:00.372Z,1021.66
2018-05-21T02:20:00.913Z,1021.66
2018-05-21T02:20:54.356Z,1021.66
2018-05-21T02:20:54.954Z,1021.65
2018-05-21T02:20:55.552Z,1021.63
2018-05-21T02:20:56.155Z,1021.65
2018-05-21T02:20:56.753Z,1021.64
2018-05-21T02:20:57.352Z,1021.68
2018-05-21T02:20:57.952Z,1021.66
2018-05-21T02:20:58.553Z,1021.66
2018-05-21T02:21:53.032Z,1021.67
2018-05-21T02:21:53.629Z,1021.68
2018-05-21T02:21:54.227Z,1021.64
2018-05-21T02:21:54.832Z,1021.61
2018-05-21T02:21:55.428Z,1021.69
2018-05-21T02:21:56.028Z,1021.67
2018-05-21T02:21:56.628Z,1021.70
2018-05-21T02:21:57.229Z,1021.69
2018-05-21T02:22:50.684Z,1021.70
2018-05-21T02:22:51.281Z,1021.69
2018-05-21T02:22:51.882Z,1021.63
2018-05-21T02:22:52.481Z,1021.70
2018-05-21T02:22:53.081Z,1021.66
2018-05-21T02:22:53.681Z,1021.70
2018-05-21T02:22:54.282Z,1021.69
2018-05-21T02:22:54.880Z,1021.66
2018-05-21T02:23:48.361Z,1021.65
2018-05-21T02:23:48.934Z,1021.65
2018-05-21T02:23:49.534Z,1021.66
2018-05-21T02:23:50.134Z,1021.67
2018-05-21T02:23:50.734Z,1021.66
2018-05-21T02:23:51.336Z,1021.69
2018-05-21T02:23:51.934Z,1021.64
2018-05-21T02:23:52.533Z,1021.65
2018-05-21T02:24:45.989Z,1021.60
2018-05-21T02:24:46.596Z,1021.65
2018-05-21T02:24:47.185Z,1021.63
2018-05-21T02:24:47.786Z,1021.63
2018-05-21T02:24:48.386Z,1021.65
2018-05-21T02:24:48.985Z,1021.64
2018-05-21T02:24:49.586Z,1021.65
2018-05-21T02:24:50.187Z,1021.65
2018-05-21T02:25:44.663Z,1021.63
2018-05-21T02:25:45.261Z,1021.63
2018-05-21T02:25:45.861Z,1021.62
2018-05-21T02:25:46.459Z,1021.63
2018-05-21T02:25:47.061Z,1021.62
2018-05-21T02:25:47.661Z,1021.60
2018-05-21T02:25:48.260Z,1021.61
2018-05-21T02:25:48.861Z,1021.60
2018-05-21T02:26:42.317Z,1021.55
2018-05-21T02:26:42.914Z,1021.58
2018-05-21T02:26:43.513Z,1021.57
2018-05-21T02:26:44.115Z,1021.57
2018-05-21T02:26:44.713Z,1021.56
2018-05-21T02:26:45.312Z,1021.58
2018-05-21T02:26:45.913Z,1021.60
2018-05-21T02:26:46.516Z,1021.57
2018-05-21T02:27:40.992Z,1021.59
2018-05-21T02:27:41.590Z,1021.59
2018-05-21T02:27:42.188Z,1021.58
2018-05-21T02:27:42.788Z,1021.56
2018-05-21T02:27:43.389Z,1021.55
2018-05-21T02:27:43.988Z,1021.55
2018-05-21T02:27:44.589Z,1021.53
2018-05-21T02:27:45.191Z,1021.52
2018-05-21T02:28:39.667Z,1021.53
2018-05-21T02:28:40.265Z,1021.55
2018-05-21T02:28:40.864Z,1021.54
2018-05-21T02:28:41.465Z,1021.56
2018-05-21T02:28:42.064Z,1021.57
2018-05-21T02:28:42.707Z,1021.55
2018-05-21T02:28:43.266Z,1021.56
2018-05-21T02:28:43.865Z,1021.56
2018-05-21T02:29:37.342Z,1021.59
2018-05-21T02:29:37.916Z,1021.56
2018-05-21T02:29:38.517Z,1021.56
2018-05-21T02:29:39.117Z,1021.52
2018-05-21T02:29:39.718Z,1021.53
2018-05-21T02:29:40.324Z,1021.52
2018-05-21T02:29:40.916Z,1021.53
2018-05-21T02:29:41.516Z,1021.50
2018-05-21T02:30:34.972Z,1021.57
2018-05-21T02:30:35.569Z,1021.55
2018-05-21T02:30:36.169Z,1021.55
2018-05-21T02:30:36.768Z,1021.57
2018-05-21T02:30:37.367Z,1021.57
2018-05-21T02:30:37.968Z,1021.55
2018-05-21T02:30:38.568Z,1021.59
2018-05-21T02:30:39.168Z,1021.53
2018-05-21T02:31:33.647Z,1021.57
2018-05-21T02:31:34.245Z,1021.56
2018-05-21T02:31:34.843Z,1021.53
2018-05-21T02:31:35.443Z,1021.54
2018-05-21T02:31:36.044Z,1021.55
2018-05-21T02:31:36.647Z,1021.53
2018-05-21T02:31:37.247Z,1021.53
2018-05-21T02:31:37.842Z,1021.53
2018-05-21T02:32:32.322Z,1021.55
2018-05-21T02:32:32.926Z,1021.58
2018-05-21T02:32:33.520Z,1021.51
2018-05-21T02:32:34.120Z,1021.53
2018-05-21T02:32:34.719Z,1021.55
2018-05-21T02:32:35.321Z,1021.54
2018-05-21T02:32:35.920Z,1021.57
2018-05-21T02:32:36.519Z,1021.55
2018-05-21T02:33:31.001Z,1021.58
2018-05-21T02:33:31.596Z,1021.57
2018-05-21T02:33:32.195Z,1021.56
2018-05-21T02:33:32.795Z,1021.61
2018-05-21T02:33:33.396Z,1021.60
2018-05-21T02:33:33.999Z,1021.55
2018-05-21T02:33:34.597Z,1021.58
2018-05-21T02:33:35.195Z,1021.57
2018-05-21T02:34:28.678Z,1021.58
2018-05-21T02:34:29.248Z,1021.58
2018-05-21T02:34:29.849Z,1021.62
2018-05-21T02:34:30.448Z,1021.59
2018-05-21T02:34:31.048Z,1021.56
2018-05-21T02:34:31.651Z,1021.56
2018-05-21T02:34:32.263Z,1021.57
2018-05-21T02:34:32.849Z,1021.58
2018-05-21T02:35:27.328Z,1021.58
2018-05-21T02:35:27.928Z,1021.53
2018-05-21T02:35:28.523Z,1021.58
2018-05-21T02:35:29.123Z,1021.58
2018-05-21T02:35:29.725Z,1021.57
2018-05-21T02:35:30.323Z,1021.56
2018-05-21T02:35:30.927Z,1021.62
2018-05-21T02:35:31.523Z,1021.58
2018-05-21T02:36:26.002Z,1021.58
2018-05-21T02:36:26.600Z,1021.61
2018-05-21T02:36:27.199Z,1021.56
2018-05-21T02:36:27.799Z,1021.56
2018-05-21T02:36:28.399Z,1021.54
2018-05-21T02:36:28.998Z,1021.56
2018-05-21T02:36:29.598Z,1021.60
2018-05-21T02:36:30.199Z,1021.55
2018-05-21T02:37:23.655Z,1021.55
2018-05-21T02:37:24.252Z,1021.56
2018-05-21T02:37:24.851Z,1021.58
2018-05-21T02:37:25.451Z,1021.55
2018-05-21T02:37:26.055Z,1021.55
2018-05-21T02:37:26.654Z,1021.57
2018-05-21T02:37:27.250Z,1021.56
2018-05-21T02:37:27.850Z,1021.58
2018-05-21T02:38:22.332Z,1021.52
2018-05-21T02:38:22.928Z,1021.56
2018-05-21T02:38:23.527Z,1021.55
2018-05-21T02:38:24.124Z,1021.53
2018-05-21T02:38:24.727Z,1021.53
2018-05-21T02:38:25.326Z,1021.57
2018-05-21T02:38:25.928Z,1021.55
2018-05-21T02:38:26.524Z,1021.54
2018-05-21T02:39:21.030Z,1021.57
2018-05-21T02:39:21.608Z,1021.53
2018-05-21T02:39:22.202Z,1021.57
2018-05-21T02:39:22.802Z,1021.53
2018-05-21T02:39:23.403Z,1021.57
2018-05-21T02:39:24.001Z,1021.58
2018-05-21T02:39:24.601Z,1021.56
2018-05-21T02:39:25.205Z,1021.59
2018-05-21T02:40:18.657Z,1021.57
2018-05-21T02:40:19.257Z,1021.57
2018-05-21T02:40:19.855Z,1021.57
2018-05-21T02:40:20.454Z,1021.56
2018-05-21T02:40:21.054Z,1021.58
2018-05-21T02:40:21.655Z,1021.55
2018-05-21T02:40:22.253Z,1021.56
2018-05-21T02:40:22.855Z,1021.56
2018-05-21T02:41:16.309Z,1021.57
2018-05-21T02:41:16.916Z,1021.57
2018-05-21T02:41:17.507Z,1021.58
2018-05-21T02:41:18.108Z,1021.55
2018-05-21T02:41:18.707Z,1021.57
2018-05-21T02:41:19.307Z,1021.56
2018-05-21T02:41:19.911Z,1021.60
2018-05-21T02:41:20.505Z,1021.58
2018-05-21T02:42:14.984Z,1021.56
2018-05-21T02:42:15.582Z,1021.55
2018-05-21T02:42:16.182Z,1021.52
2018-05-21T02:42:16.783Z,1021.50
2018-05-21T02:42:17.380Z,1021.51
2018-05-21T02:42:17.981Z,1021.55
2018-05-21T02:42:18.581Z,1021.55
2018-05-21T02:42:19.186Z,1021.58
2018-05-21T02:43:12.636Z,1021.54
2018-05-21T02:43:13.235Z,1021.53
2018-05-21T02:43:13.837Z,1021.54
2018-05-21T02:43:14.433Z,1021.50
2018-05-21T02:43:15.034Z,1021.53
2018-05-21T02:43:15.635Z,1021.54
2018-05-21T02:43:16.248Z,1021.54
2018-05-21T02:43:16.838Z,1021.54
2018-05-21T02:44:10.318Z,1021.56
2018-05-21T02:44:10.885Z,1021.52
2018-05-21T02:44:11.485Z,1021.51
2018-05-21T02:44:12.085Z,1021.55
2018-05-21T02:44:12.686Z,1021.54
2018-05-21T02:44:13.285Z,1021.53
2018-05-21T02:44:13.884Z,1021.51
2018-05-21T02:44:14.485Z,1021.52
2018-05-21T02:45:08.962Z,1021.53
2018-05-21T02:45:09.559Z,1021.55
2018-05-21T02:45:10.159Z,1021.52
2018-05-21T02:45:10.760Z,1021.48
2018-05-21T02:45:11.359Z,1021.49
2018-05-21T02:45:11.958Z,1021.55
2018-05-21T02:45:12.560Z,1021.56
2018-05-21T02:45:13.161Z,1021.49
2018-05-21T02:46:06.616Z,1021.52
2018-05-21T02:46:07.213Z,1021.50
2018-05-21T02:46:07.812Z,1021.51
2018-05-21T02:46:08.414Z,1021.51
2018-05-21T02:46:09.014Z,1021.53
2018-05-21T02:46:09.613Z,1021.50
2018-05-21T02:46:10.213Z,1021.55
2018-05-21T02:46:10.812Z,1021.50
2018-05-21T02:47:05.292Z,1021.48
2018-05-21T02:47:05.887Z,1021.48
2018-05-21T02:47:06.488Z,1021.49
2018-05-21T02:47:07.089Z,1021.48
2018-05-21T02:47:07.687Z,1021.47
2018-05-21T02:47:08.286Z,1021.49
2018-05-21T02:47:08.887Z,1021.50
2018-05-21T02:47:09.487Z,1021.46
2018-05-21T02:48:03.967Z,1021.48
2018-05-21T02:48:04.564Z,1021.47
2018-05-21T02:48:05.163Z,1021.45
2018-05-21T02:48:05.762Z,1021.48
2018-05-21T02:48:06.368Z,1021.46
2018-05-21T02:48:06.962Z,1021.53
2018-05-21T02:48:07.561Z,1021.45
2018-05-21T02:48:08.164Z,1021.47
2018-05-21T02:49:02.643Z,1021.45
2018-05-21T02:49:03.240Z,1021.42
2018-05-21T02:49:03.840Z,1021.41
2018-05-21T02:49:04.440Z,1021.41
2018-05-21T02:49:05.039Z,1021.42
2018-05-21T02:49:05.638Z,1021.44
2018-05-21T02:49:06.242Z,1021.44
2018-05-21T02:49:06.837Z,1021.39
2018-05-21T02:50:00.317Z,1021.38
2018-05-21T02:50:00.897Z,1021.41
2018-05-21T02:50:01.492Z,1021.39
2018-05-21T02:50:02.093Z,1021.40
2018-05-21T02:50:02.692Z,1021.43
2018-05-21T02:50:03.292Z,1021.40
2018-05-21T02:50:03.891Z,1021.44
2018-05-21T02:50:04.491Z,1021.45
2018-05-21T02:50:58.969Z,1021.39
2018-05-21T02:50:59.566Z,1021.42
2018-05-21T02:51:00.166Z,1021.41
2018-05-21T02:51:00.767Z,1021.41
2018-05-21T02:51:01.366Z,1021.41
2018-05-21T02:51:01.966Z,1021.39
2018-05-21T02:51:02.565Z,1021.46
2018-05-21T02:51:03.165Z,1021.38
2018-05-21T02:51:56.622Z,1021.42
2018-05-21T02:51:57.221Z,1021.42
2018-05-21T02:51:57.819Z,1021.43
2018-05-21T02:51:58.422Z,1021.42
2018-05-21T02:51:59.019Z,1021.43
2018-05-21T02:51:59.618Z,1021.40
2018-05-21T02:52:00.219Z,1021.42
2018-05-21T02:52:00.819Z,1021.43
2018-05-21T02:52:54.276Z,1021.40
2018-05-21T02:52:54.870Z,1021.40
2018-05-21T02:52:55.470Z,1021.41
2018-05-21T02:52:56.072Z,1021.42
2018-05-21T02:52:56.670Z,1021.39
2018-05-21T02:52:57.271Z,1021.39
2018-05-21T02:52:57.870Z,1021.45
2018-05-21T02:52:58.469Z,1021.38
2018-05-21T02:53:51.926Z,1021.40
2018-05-21T02:53:52.523Z,1021.43
2018-05-21T02:53:53.123Z,1021.37
2018-05-21T02:53:53.723Z,1021.41
2018-05-21T02:53:54.322Z,1021.42
2018-05-21T02:53:54.923Z,1021.39
2018-05-21T02:53:55.521Z,1021.43
2018-05-21T02:53:56.124Z,1021.39
2018-05-21T02:54:49.601Z,1021.38
2018-05-21T02:54:50.175Z,1021.38
2018-05-21T02:54:50.777Z,1021.38
2018-05-21T02:54:51.372Z,1021.39
2018-05-21T02:54:51.983Z,1021.41
2018-05-21T02:54:52.581Z,1021.36
2018-05-21T02:54:53.171Z,1021.38
2018-05-21T02:54:53.771Z,1021.39
2018-05-21T02:55:47.229Z,1021.37
2018-05-21T02:55:47.825Z,1021.37
2018-05-21T02:55:48.427Z,1021.36
2018-05-21T02:55:49.026Z,1021.36
2018-05-21T02:55:49.629Z,1021.35
2018-05-21T02:55:50.226Z,1021.36
2018-05-21T02:55:50.824Z,1021.36
2018-05-21T02:55:51.425Z,1021.40
2018-05-21T02:56:44.879Z,1021.38
2018-05-21T02:56:45.480Z,1021.38
2018-05-21T02:56:46.078Z,1021.39
2018-05-21T02:56:46.678Z,1021.39
2018-05-21T02:56:47.277Z,1021.39
2018-05-21T02:56:47.877Z,1021.39
2018-05-21T02:56:48.479Z,1021.38
2018-05-21T02:56:49.076Z,1021.40
2018-05-21T02:57:42.634Z,1021.37
2018-05-21T02:57:43.233Z,1021.37
2018-05-21T02:57:43.833Z,1021.35
2018-05-21T02:57:44.431Z,1021.38
2018-05-21T02:57:45.033Z,1021.38
2018-05-21T02:57:45.632Z,1021.38
2018-05-21T02:57:46.230Z,1021.36
2018-05-21T02:57:46.834Z,1021.36
2018-05-21T02:58:41.308Z,1021.36
2018-05-21T02:58:41.906Z,1021.36
2018-05-21T02:58:42.506Z,1021.36
2018-05-21T02:58:43.107Z,1021.37
2018-05-21T02:58:43.705Z,1021.36
2018-05-21T02:58:44.305Z,1021.39
2018-05-21T02:58:44.905Z,1021.37
2018-05-21T02:58:45.506Z,1021.33
2018-05-21T02:59:40.020Z,1021.36
2018-05-21T02:59:40.585Z,1021.34
2018-05-21T02:59:41.183Z,1021.31
2018-05-21T02:59:41.785Z,1021.36
2018-05-21T02:59:42.383Z,1021.33
2018-05-21T02:59:42.983Z,1021.33
2018-05-21T02:59:43.583Z,1021.39
2018-05-21T02:59:44.181Z,1021.36
2018-05-21T03:00:38.661Z,1021.36
2018-05-21T03:00:39.257Z,1021.31
2018-05-21T03:00:39.857Z,1021.35
2018-05-21T03:00:40.458Z,1021.31
2018-05-21T03:00:41.057Z,1021.36
2018-05-21T03:00:41.659Z,1021.37
2018-05-21T03:00:42.258Z,1021.38
2018-05-21T03:00:42.858Z,1021.36
2018-05-21T03:01:36.313Z,1021.35
2018-05-21T03:01:36.912Z,1021.37
2018-05-21T03:01:37.511Z,1021.33
2018-05-21T03:01:38.113Z,1021.32
2018-05-21T03:01:38.710Z,1021.36
2018-05-21T03:01:39.311Z,1021.37
2018-05-21T03:01:39.909Z,1021.37
2018-05-21T03:01:40.510Z,1021.36
2018-05-21T03:02:33.964Z,1021.30
2018-05-21T03:02:34.562Z,1021.31
2018-05-21T03:02:35.163Z,1021.29
2018-05-21T03:02:35.761Z,1021.33
2018-05-21T03:02:36.362Z,1021.33
2018-05-21T03:02:36.966Z,1021.33
2018-05-21T03:02:37.564Z,1021.31
2018-05-21T03:02:38.161Z,1021.32
2018-05-21T03:03:31.617Z,1021.27
2018-05-21T03:03:32.214Z,1021.27
2018-05-21T03:03:32.814Z,1021.31
2018-05-21T03:03:33.413Z,1021.29
2018-05-21T03:03:34.014Z,1021.32
2018-05-21T03:03:34.614Z,1021.32
2018-05-21T03:03:35.215Z,1021.29
2018-05-21T03:03:35.814Z,1021.28
2018-05-21T03:04:30.333Z,1021.30
2018-05-21T03:04:30.896Z,1021.31
2018-05-21T03:04:31.496Z,1021.27
2018-05-21T03:04:32.097Z,1021.27
2018-05-21T03:04:32.695Z,1021.28
2018-05-21T03:04:33.296Z,1021.32
2018-05-21T03:04:33.895Z,1021.29
2018-05-21T03:04:34.495Z,1021.28
2018-05-21T03:05:27.950Z,1021.28
2018-05-21T03:05:28.549Z,1021.30
2018-05-21T03:05:29.150Z,1021.30
2018-05-21T03:05:29.749Z,1021.25
2018-05-21T03:05:30.352Z,1021.26
2018-05-21T03:05:30.950Z,1021.29
2018-05-21T03:05:31.546Z,1021.28
2018-05-21T03:05:32.148Z,1021.30
2018-05-21T03:06:26.628Z,1021.28
2018-05-21T03:06:27.224Z,1021.28
2018-05-21T03:06:27.823Z,1021.30
2018-05-21T03:06:28.427Z,1021.25
2018-05-21T03:06:29.022Z,1021.31
2018-05-21T03:06:29.623Z,1021.28
2018-05-21T03:06:30.223Z,1021.29
2018-05-21T03:06:30.822Z,1021.31
2018-05-21T03:07:24.278Z,1021.24
2018-05-21T03:07:24.877Z,1021.25
2018-05-21T03:07:25.476Z,1021.28
2018-05-21T03:07:26.075Z,1021.25
2018-05-21T03:07:26.676Z,1021.25
2018-05-21T03:07:27.276Z,1021.30
2018-05-21T03:07:27.877Z,1021.29
2018-05-21T03:07:28.475Z,1021.28
2018-05-21T03:08:22.953Z,1021.26
2018-05-21T03:08:23.550Z,1021.25
2018-05-21T03:08:24.149Z,1021.27
2018-05-21T03:08:24.750Z,1021.30
2018-05-21T03:08:25.351Z,1021.31
2018-05-21T03:08:25.949Z,1021.28
2018-05-21T03:08:26.550Z,1021.30
2018-05-21T03:08:27.150Z,1021.30
2018-05-21T03:09:20.605Z,1021.29
2018-05-21T03:09:21.202Z,1021.27
2018-05-21T03:09:21.803Z,1021.26
2018-05-21T03:09:22.403Z,1021.31
2018-05-21T03:09:23.003Z,1021.29
2018-05-21T03:09:23.603Z,1021.32
2018-05-21T03:09:24.203Z,1021.30
2018-05-21T03:09:24.802Z,1021.28
2018-05-21T03:10:19.307Z,1021.29
2018-05-21T03:10:19.878Z,1021.30
2018-05-21T03:10:20.480Z,1021.28
2018-05-21T03:10:21.081Z,1021.27
2018-05-21T03:10:21.677Z,1021.27
2018-05-21T03:10:22.277Z,1021.26
2018-05-21T03:10:22.876Z,1021.25
2018-05-21T03:10:23.476Z,1021.26
2018-05-21T03:11:16.933Z,1021.31
2018-05-21T03:11:17.530Z,1021.29
2018-05-21T03:11:18.131Z,1021.28
2018-05-21T03:11:18.730Z,1021.26
2018-05-21T03:11:19.330Z,1021.27
2018-05-21T03:11:19.937Z,1021.27
2018-05-21T03:11:20.532Z,1021.29
2018-05-21T03:11:21.130Z,1021.29
2018-05-21T03:12:15.607Z,1021.30
2018-05-21T03:12:16.205Z,1021.28
2018-05-21T03:12:16.806Z,1021.29
2018-05-21T03:12:17.404Z,1021.33
2018-05-21T03:12:18.004Z,1021.31
2018-05-21T03:12:18.606Z,1021.29
2018-05-21T03:12:19.204Z,1021.28
2018-05-21T03:12:19.804Z,1021.31
2018-05-21T03:30:11.052Z,1021.28
2018-05-21T03:30:11.617Z,1021.35
2018-05-21T03:30:12.216Z,1021.31
2018-05-21T03:30:12.815Z,1021.27
2018-05-21T03:30:13.414Z,1021.29
2018-05-21T03:30:14.017Z,1021.29
2018-05-21T03:30:14.617Z,1021.29
2018-05-21T03:30:15.214Z,1021.30
2018-05-21T03:31:08.678Z,1021.33
2018-05-21T03:31:09.275Z,1021.31
2018-05-21T03:31:09.867Z,1021.30
2018-05-21T03:31:10.467Z,1021.28
2018-05-21T03:31:11.068Z,1021.31
2018-05-21T03:31:11.672Z,1021.31
2018-05-21T03:31:12.266Z,1021.32
2018-05-21T03:31:12.867Z,1021.31
2018-05-21T03:32:07.372Z,1021.34
2018-05-21T03:32:07.944Z,1021.27
2018-05-21T03:32:08.541Z,1021.31
2018-05-21T03:32:09.142Z,1021.28
2018-05-21T03:32:09.742Z,1021.32
2018-05-21T03:32:10.343Z,1021.32
2018-05-21T03:32:10.942Z,1021.30
2018-05-21T03:32:11.541Z,1021.33
2018-05-21T03:33:06.024Z,1021.31
2018-05-21T03:33:06.621Z,1021.31
2018-05-21T03:33:07.219Z,1021.31
2018-05-21T03:33:07.818Z,1021.33
2018-05-21T03:33:08.420Z,1021.29
2018-05-21T03:33:09.042Z,1021.29
2018-05-21T03:33:09.618Z,1021.30
2018-05-21T03:33:10.222Z,1021.31
2018-05-21T03:34:04.697Z,1021.28
2018-05-21T03:34:05.295Z,1021.31
2018-05-21T03:34:05.895Z,1021.31
2018-05-21T03:34:06.495Z,1021.29
2018-05-21T03:34:07.094Z,1021.31
2018-05-21T03:34:07.695Z,1021.33
2018-05-21T03:34:08.294Z,1021.31
2018-05-21T03:34:08.895Z,1021.30
2018-05-21T03:35:02.351Z,1021.29
2018-05-21T03:35:02.948Z,1021.30
2018-05-21T03:35:03.548Z,1021.31
2018-05-21T03:35:04.147Z,1021.32
2018-05-21T03:35:04.748Z,1021.30
2018-05-21T03:35:05.351Z,1021.31
2018-05-21T03:35:05.945Z,1021.29
2018-05-21T03:35:06.547Z,1021.32
2018-05-21T03:36:00.029Z,1021.30
2018-05-21T03:36:00.600Z,1021.30
2018-05-21T03:36:01.200Z,1021.28
2018-05-21T03:36:01.799Z,1021.32
2018-05-21T03:36:02.402Z,1021.32
2018-05-21T03:36:02.998Z,1021.30
2018-05-21T03:36:03.609Z,1021.31
2018-05-21T03:36:04.199Z,1021.31
2018-05-21T03:36:58.686Z,1021.30
2018-05-21T03:36:59.277Z,1021.27
2018-05-21T03:36:59.874Z,1021.24
2018-05-21T03:37:00.473Z,1021.29
2018-05-21T03:37:01.073Z,1021.29
2018-05-21T03:37:01.674Z,1021.27
2018-05-21T03:37:02.273Z,1021.28
2018-05-21T03:37:02.875Z,1021.29
2018-05-21T03:37:56.331Z,1021.32
2018-05-21T03:37:56.947Z,1021.30
2018-05-21T03:37:57.528Z,1021.32
2018-05-21T03:37:58.134Z,1021.31
2018-05-21T03:37:58.726Z,1021.32
2018-05-21T03:37:59.327Z,1021.30
2018-05-21T03:37:59.927Z,1021.33
2018-05-21T03:38:00.527Z,1021.33
2018-05-21T03:38:53.982Z,1021.32
2018-05-21T03:38:54.582Z,1021.26
2018-05-21T03:38:55.179Z,1021.31
2018-05-21T03:38:55.779Z,1021.33
2018-05-21T03:38:56.379Z,1021.31
2018-05-21T03:38:56.979Z,1021.31
2018-05-21T03:38:57.585Z,1021.35
2018-05-21T03:38:58.180Z,1021.32
2018-05-21T03:39:52.657Z,1021.33
2018-05-21T03:39:53.256Z,1021.31
2018-05-21T03:39:53.855Z,1021.33
2018-05-21T03:39:54.455Z,1021.32
2018-05-21T03:39:55.053Z,1021.33
2018-05-21T03:39:55.655Z,1021.30
2018-05-21T03:39:56.255Z,1021.32
2018-05-21T03:39:56.853Z,1021.33
2018-05-21T03:40:51.359Z,1021.33
2018-05-21T03:40:51.931Z,1021.31
2018-05-21T03:40:52.529Z,1021.32
2018-05-21T03:40:53.130Z,1021.32
2018-05-21T03:40:53.731Z,1021.32
2018-05-21T03:40:54.330Z,1021.32
2018-05-21T03:40:54.929Z,1021.32
2018-05-21T03:40:55.529Z,1021.34
2018-05-21T03:41:48.986Z,1021.33
2018-05-21T03:41:49.587Z,1021.34
2018-05-21T03:41:50.182Z,1021.36
2018-05-21T03:41:50.783Z,1021.32
2018-05-21T03:41:51.383Z,1021.34
2018-05-21T03:41:51.982Z,1021.36
2018-05-21T03:41:52.582Z,1021.36
2018-05-21T03:41:53.183Z,1021.36
2018-05-21T03:42:47.661Z,1021.35
2018-05-21T03:42:48.259Z,1021.36
2018-05-21T03:42:48.858Z,1021.34
2018-05-21T03:42:49.458Z,1021.37
2018-05-21T03:42:50.057Z,1021.39
2018-05-21T03:42:50.658Z,1021.36
2018-05-21T03:42:51.257Z,1021.36
2018-05-21T03:42:51.857Z,1021.34
2018-05-21T03:43:46.337Z,1021.35
2018-05-21T03:43:46.935Z,1021.34
2018-05-21T03:43:47.533Z,1021.33
2018-05-21T03:43:48.134Z,1021.33
2018-05-21T03:43:48.733Z,1021.33
2018-05-21T03:43:49.375Z,1021.35
2018-05-21T03:43:49.933Z,1021.35
2018-05-21T03:43:50.533Z,1021.34
2018-05-21T03:44:45.526Z,1021.38
2018-05-21T03:44:46.122Z,1021.35
2018-05-21T03:44:46.720Z,1021.30
2018-05-21T03:44:47.320Z,1021.34
2018-05-21T03:44:47.921Z,1021.31
2018-05-21T03:44:48.526Z,1021.33
2018-05-21T03:44:49.120Z,1021.30
2018-05-21T03:45:43.620Z,1021.30
2018-05-21T03:45:44.183Z,1021.31
2018-05-21T03:45:44.780Z,1021.29
2018-05-21T03:45:45.380Z,1021.31
2018-05-21T03:45:45.982Z,1021.33
2018-05-21T03:45:46.580Z,1021.31
2018-05-21T03:45:47.180Z,1021.30
2018-05-21T03:45:47.780Z,1021.30
2018-05-21T03:46:42.264Z,1021.34
2018-05-21T03:46:42.860Z,1021.31
2018-05-21T03:46:43.460Z,1021.28
2018-05-21T03:46:44.059Z,1021.35
2018-05-21T03:46:44.659Z,1021.31
2018-05-21T03:46:45.264Z,1021.34
2018-05-21T03:46:45.857Z,1021.35
2018-05-21T03:46:46.457Z,1021.36
2018-05-21T03:47:39.919Z,1021.34
2018-05-21T03:47:40.512Z,1021.33
2018-05-21T03:47:41.111Z,1021.32
2018-05-21T03:47:41.711Z,1021.33
2018-05-21T03:47:42.314Z,1021.30
2018-05-21T03:47:42.914Z,1021.36
2018-05-21T03:47:43.510Z,1021.34
2018-05-21T03:47:44.110Z,1021.36
2018-05-21T03:48:37.566Z,1021.35
2018-05-21T03:48:38.163Z,1021.34
2018-05-21T03:48:38.762Z,1021.36
2018-05-21T03:48:39.364Z,1021.34
2018-05-21T03:48:39.963Z,1021.36
2018-05-21T03:48:40.562Z,1021.35
2018-05-21T03:48:41.161Z,1021.31
2018-05-21T03:48:41.762Z,1021.32
2018-05-21T03:49:36.241Z,1021.36
2018-05-21T03:49:36.839Z,1021.37
2018-05-21T03:49:37.437Z,1021.37
2018-05-21T03:49:38.038Z,1021.34
2018-05-21T03:49:38.636Z,1021.34
2018-05-21T03:49:39.237Z,1021.36
2018-05-21T03:49:39.837Z,1021.37
2018-05-21T03:49:40.439Z,1021.35
2018-05-21T03:50:33.894Z,1021.35
2018-05-21T03:50:34.491Z,1021.34
2018-05-21T03:50:35.090Z,1021.34
2018-05-21T03:50:35.691Z,1021.32
2018-05-21T03:50:36.290Z,1021.37
2018-05-21T03:50:36.891Z,1021.32
2018-05-21T03:50:37.490Z,1021.36
2018-05-21T03:50:38.092Z,1021.40
2018-05-21T03:51:31.575Z,1021.36
2018-05-21T03:51:32.149Z,1021.38
2018-05-21T03:51:32.742Z,1021.37
2018-05-21T03:51:33.343Z,1021.38
2018-05-21T03:51:33.941Z,1021.37
2018-05-21T03:51:34.541Z,1021.35
2018-05-21T03:51:35.142Z,1021.34
2018-05-21T03:51:35.741Z,1021.36
2018-05-21T03:52:29.195Z,1021.38
2018-05-21T03:52:29.795Z,1021.35
2018-05-21T03:52:30.396Z,1021.38
2018-05-21T03:52:30.996Z,1021.36
2018-05-21T03:52:31.595Z,1021.38
2018-05-21T03:52:32.194Z,1021.36
2018-05-21T03:52:32.795Z,1021.38
2018-05-21T03:52:33.394Z,1021.36
2018-05-21T03:53:27.872Z,1021.36
2018-05-21T03:53:28.469Z,1021.37
2018-05-21T03:53:29.068Z,1021.35
2018-05-21T03:53:29.668Z,1021.34
2018-05-21T03:53:30.269Z,1021.36
2018-05-21T03:53:30.867Z,1021.34
2018-05-21T03:53:31.467Z,1021.37
2018-05-21T03:53:32.066Z,1021.33
2018-05-21T03:54:25.524Z,1021.35
2018-05-21T03:54:26.123Z,1021.32
2018-05-21T03:54:26.721Z,1021.35
2018-05-21T03:54:27.323Z,1021.34
2018-05-21T03:54:27.922Z,1021.33
2018-05-21T03:54:28.521Z,1021.35
2018-05-21T03:54:29.122Z,1021.33
2018-05-21T03:54:29.722Z,1021.32
2018-05-21T03:55:23.175Z,1021.35
2018-05-21T03:55:23.773Z,1021.33
2018-05-21T03:55:24.374Z,1021.36
2018-05-21T03:55:24.973Z,1021.38
2018-05-21T03:55:25.577Z,1021.36
2018-05-21T03:55:26.173Z,1021.35
2018-05-21T03:55:26.772Z,1021.33
2018-05-21T03:55:27.373Z,1021.36
2018-05-21T03:56:21.877Z,1021.33
2018-05-21T03:56:22.452Z,1021.36
2018-05-21T03:56:23.047Z,1021.37
2018-05-21T03:56:23.647Z,1021.36
2018-05-21T03:56:24.247Z,1021.33
2018-05-21T03:56:24.847Z,1021.33
2018-05-21T03:56:25.446Z,1021.35
2018-05-21T03:56:26.046Z,1021.33
2018-05-21T03:57:19.504Z,1021.36
2018-05-21T03:57:20.111Z,1021.37
2018-05-21T03:57:20.699Z,1021.36
2018-05-21T03:57:21.300Z,1021.37
2018-05-21T03:57:21.900Z,1021.35
2018-05-21T03:57:22.499Z,1021.37
2018-05-21T03:57:23.099Z,1021.37
2018-05-21T03:57:23.700Z,1021.36
2018-05-21T03:58:17.155Z,1021.39
2018-05-21T03:58:17.753Z,1021.38
2018-05-21T03:58:18.357Z,1021.37
2018-05-21T03:58:18.953Z,1021.37
2018-05-21T03:58:19.553Z,1021.40
2018-05-21T03:58:20.154Z,1021.41
2018-05-21T03:58:20.753Z,1021.38
2018-05-21T03:58:21.352Z,1021.40
2018-05-21T03:59:14.806Z,1021.43
2018-05-21T03:59:15.406Z,1021.38
2018-05-21T03:59:16.008Z,1021.43
2018-05-21T03:59:16.604Z,1021.41
2018-05-21T03:59:17.205Z,1021.42
2018-05-21T03:59:17.804Z,1021.42
2018-05-21T03:59:18.404Z,1021.40
2018-05-21T03:59:19.003Z,1021.43
2018-05-21T04:00:12.459Z,1021.43
2018-05-21T04:00:13.056Z,1021.41
2018-05-21T04:00:13.655Z,1021.39
2018-05-21T04:00:14.427Z,1021.37
2018-05-21T04:00:14.856Z,1021.41
2018-05-21T04:00:15.456Z,1021.42
2018-05-21T04:00:16.055Z,1021.41
2018-05-21T04:00:16.661Z,1021.42
2018-05-21T04:01:11.160Z,1021.40
2018-05-21T04:01:11.730Z,1021.42
2018-05-21T04:01:12.330Z,1021.43
2018-05-21T04:01:12.931Z,1021.42
2018-05-21T04:01:13.530Z,1021.42
2018-05-21T04:01:14.129Z,1021.44
2018-05-21T04:01:14.730Z,1021.44